Weinert, TX (76388)

1:11 PM CDT on July 30, 2016 (GMT -0500)
Rhineland | | Change Station

Elev 1413 ft 33.56 °N, 99.68 °W | Updated 51 seconds ago

Mostly Cloudy
Mostly Cloudy
95.0 °F
Feels Like 97 °F
N
4.0
Wind Variable Wind from South
Gusts 7.0 mph

Today
High -- | Low -- °F
--% Chance of Precip.
Yesterday
High -- | Low -- °F
Precip. -- in
Pressure 30.01 in
Visibility 7.0 miles
Clouds Mostly Cloudy 5500 ft
Heat Index 97 °F
Dew Point 64 °F
Humidity 36%
Rainfall in
Snow Depth Not available.
6:50 AM 8:39 PM
Waning Crescent, 12% visible
METAR KBKD 301755Z AUTO 15004KT 7SM BKN055 34/18 A3001 RMK AO2 T03390184 10343 20246
Pressure 30.01 in
Visibility 7.0 miles
Clouds Mostly Cloudy 5500 ft
Heat Index 97 °F
Dew Point 64 °F
Humidity 36%
Rainfall in
Snow Depth Not available.
6:50 AM 8:39 PM
Waning Crescent, 12% visible
METAR KBKD 301755Z AUTO 15004KT 7SM BKN055 34/18 A3001 RMK AO2 T03390184 10343 20246

10-Day Weather Forecast

Almanac

Astronomy

Jul. 30, 2016 Rise Set
Actual Time
Civil Twilight
Nautical Twilight
Astronomical Twilight
Moon
Length of Visible Light
Length of Day
Tomorrow will be .
, % of the Moon is Illuminated

Today's Extremes

State Highs State Lows

Community

WunderPhotos

Upload Photos

1,928,607 photos uploaded!

WunderBlog® & News

Nearby

Air Quality

  Air Quality AQ Index Pollutant
Not available.

Snow Depth

Station Depth Elevation

Earthquake Activity

City Distance Mag. Time & Date
Minimum magnitude displayed is 2.5.

Coastal Water Temperatures

Place Temperature

Stations

Nearby Weather Stations

Station Location Temp. Windchill Dew Point Humidity Wind Precip. Elev Updated Type
                   

Watches & Warnings

There are currently no watches in effect.